sensor_id;sensor_type;location;lat;lon;timestamp;pressure;altitude;pressure_sealevel;temperature
32039;BMP280;18549;42.286;22.688;2023-09-30T00:01:56;96008.78;;;20.39
32039;BMP280;18549;42.286;22.688;2023-09-30T00:04:24;96006.41;;;20.38
32039;BMP280;18549;42.286;22.688;2023-09-30T00:06:53;96013.69;;;20.41
32039;BMP280;18549;42.286;22.688;2023-09-30T00:09:20;96007.78;;;20.50
32039;BMP280;18549;42.286;22.688;2023-09-30T00:11:47;96001.81;;;20.50
32039;BMP280;18549;42.286;22.688;2023-09-30T00:14:15;96004.88;;;20.45
32039;BMP280;18549;42.286;22.688;2023-09-30T00:16:44;95998.44;;;20.42
32039;BMP280;18549;42.286;22.688;2023-09-30T00:19:11;96004.34;;;20.33
32039;BMP280;18549;42.286;22.688;2023-09-30T00:21:39;96018.81;;;20.31
32039;BMP280;18549;42.286;22.688;2023-09-30T00:24:06;96011.62;;;20.19
32039;BMP280;18549;42.286;22.688;2023-09-30T00:26:35;96015.66;;;20.12
32039;BMP280;18549;42.286;22.688;2023-09-30T00:29:03;96007.31;;;20.12
32039;BMP280;18549;42.286;22.688;2023-09-30T00:31:33;96005.34;;;20.06
32039;BMP280;18549;42.286;22.688;2023-09-30T00:34:04;96006.75;;;20.00
32039;BMP280;18549;42.286;22.688;2023-09-30T00:36:34;96003.44;;;20.00
32039;BMP280;18549;42.286;22.688;2023-09-30T00:39:01;95996.03;;;19.98
32039;BMP280;18549;42.286;22.688;2023-09-30T00:41:29;95997.63;;;19.99
32039;BMP280;18549;42.286;22.688;2023-09-30T00:43:57;95995.66;;;19.93
32039;BMP280;18549;42.286;22.688;2023-09-30T00:46:27;95997.47;;;19.84
32039;BMP280;18549;42.286;22.688;2023-09-30T00:48:57;95992.03;;;19.79
32039;BMP280;18549;42.286;22.688;2023-09-30T00:51:27;96001.72;;;19.74
32039;BMP280;18549;42.286;22.688;2023-09-30T00:53:57;95997.63;;;19.73
32039;BMP280;18549;42.286;22.688;2023-09-30T00:56:27;96003.09;;;19.68
32039;BMP280;18549;42.286;22.688;2023-09-30T00:58:55;96004.06;;;19.58
32039;BMP280;18549;42.286;22.688;2023-09-30T01:01:24;96001.84;;;19.55
32039;BMP280;18549;42.286;22.688;2023-09-30T01:03:51;96001.84;;;19.55
32039;BMP280;18549;42.286;22.688;2023-09-30T01:06:19;96001.47;;;19.50
32039;BMP280;18549;42.286;22.688;2023-09-30T01:08:48;96007.06;;;19.44
32039;BMP280;18549;42.286;22.688;2023-09-30T01:11:17;96005.78;;;19.40
32039;BMP280;18549;42.286;22.688;2023-09-30T01:13:44;96000.34;;;19.35
32039;BMP280;18549;42.286;22.688;2023-09-30T01:16:13;95999.94;;;19.40
32039;BMP280;18549;42.286;22.688;2023-09-30T01:18:41;96006.59;;;19.31
32039;BMP280;18549;42.286;22.688;2023-09-30T01:21:09;96009.00;;;19.23
32039;BMP280;18549;42.286;22.688;2023-09-30T01:23:38;96005.06;;;19.21
32039;BMP280;18549;42.286;22.688;2023-09-30T01:26:08;96002.69;;;19.19
32039;BMP280;18549;42.286;22.688;2023-09-30T01:28:36;96007.72;;;19.19
32039;BMP280;18549;42.286;22.688;2023-09-30T01:31:03;96004.81;;;19.15
32039;BMP280;18549;42.286;22.688;2023-09-30T01:33:31;96004.44;;;19.10
32039;BMP280;18549;42.286;22.688;2023-09-30T01:35:58;96010.53;;;19.07
32039;BMP280;18549;42.286;22.688;2023-09-30T01:38:26;96010.00;;;19.13
32039;BMP280;18549;42.286;22.688;2023-09-30T01:40:55;96006.34;;;18.98
32039;BMP280;18549;42.286;22.688;2023-09-30T01:43:22;96003.81;;;18.98
32039;BMP280;18549;42.286;22.688;2023-09-30T01:45:49;96011.59;;;19.05
32039;BMP280;18549;42.286;22.688;2023-09-30T01:48:17;95998.53;;;18.92
32039;BMP280;18549;42.286;22.688;2023-09-30T01:50:44;96014.03;;;18.78
32039;BMP280;18549;42.286;22.688;2023-09-30T01:53:12;95998.19;;;18.78
32039;BMP280;18549;42.286;22.688;2023-09-30T01:55:39;96008.09;;;18.79
32039;BMP280;18549;42.286;22.688;2023-09-30T01:58:08;95998.97;;;18.78
32039;BMP280;18549;42.286;22.688;2023-09-30T02:00:37;96004.94;;;18.77
32039;BMP280;18549;42.286;22.688;2023-09-30T02:03:05;96002.13;;;18.80
32039;BMP280;18549;42.286;22.688;2023-09-30T02:05:32;95991.19;;;18.81
32039;BMP280;18549;42.286;22.688;2023-09-30T02:08:00;95992.06;;;18.89
32039;BMP280;18549;42.286;22.688;2023-09-30T02:10:31;95988.75;;;18.89
32039;BMP280;18549;42.286;22.688;2023-09-30T02:12:59;95985.59;;;18.87
32039;BMP280;18549;42.286;22.688;2023-09-30T02:15:28;95987.44;;;18.85
32039;BMP280;18549;42.286;22.688;2023-09-30T02:17:55;95985.38;;;18.81
32039;BMP280;18549;42.286;22.688;2023-09-30T02:20:23;95986.16;;;18.81
32039;BMP280;18549;42.286;22.688;2023-09-30T02:22:51;95991.97;;;18.82
32039;BMP280;18549;42.286;22.688;2023-09-30T02:25:19;95987.22;;;18.79
32039;BMP280;18549;42.286;22.688;2023-09-30T02:27:49;95995.16;;;18.74
32039;BMP280;18549;42.286;22.688;2023-09-30T02:30:16;95994.13;;;18.67
32039;BMP280;18549;42.286;22.688;2023-09-30T02:32:45;96000.97;;;18.75
32039;BMP280;18549;42.286;22.688;2023-09-30T02:35:13;96000.72;;;18.68
32039;BMP280;18549;42.286;22.688;2023-09-30T02:37:41;96001.91;;;18.64
32039;BMP280;18549;42.286;22.688;2023-09-30T02:40:08;96006.56;;;18.50
32039;BMP280;18549;42.286;22.688;2023-09-30T02:42:40;95998.38;;;18.48
32039;BMP280;18549;42.286;22.688;2023-09-30T02:45:10;95995.47;;;18.43
32039;BMP280;18549;42.286;22.688;2023-09-30T02:47:38;96003.12;;;18.42
32039;BMP280;18549;42.286;22.688;2023-09-30T02:50:08;96002.59;;;18.48
32039;BMP280;18549;42.286;22.688;2023-09-30T02:52:37;96001.66;;;18.49
32039;BMP280;18549;42.286;22.688;2023-09-30T02:55:07;96002.88;;;18.45
32039;BMP280;18549;42.286;22.688;2023-09-30T02:57:34;96002.50;;;18.40
32039;BMP280;18549;42.286;22.688;2023-09-30T03:00:02;96004.06;;;18.50
32039;BMP280;18549;42.286;22.688;2023-09-30T03:02:39;96008.69;;;18.45
32039;BMP280;18549;42.286;22.688;2023-09-30T03:05:09;96012.66;;;18.48
32039;BMP280;18549;42.286;22.688;2023-09-30T03:07:37;96000.22;;;18.46
32039;BMP280;18549;42.286;22.688;2023-09-30T03:10:06;96008.16;;;18.51
32039;BMP280;18549;42.286;22.688;2023-09-30T03:12:34;96008.16;;;18.42
32039;BMP280;18549;42.286;22.688;2023-09-30T03:15:01;96005.00;;;18.49
32039;BMP280;18549;42.286;22.688;2023-09-30T03:17:30;96000.88;;;18.48
32039;BMP280;18549;42.286;22.688;2023-09-30T03:19:58;95995.47;;;18.52
32039;BMP280;18549;42.286;22.688;2023-09-30T03:22:27;95989.94;;;18.40
32039;BMP280;18549;42.286;22.688;2023-09-30T03:24:54;96000.00;;;18.40
32039;BMP280;18549;42.286;22.688;2023-09-30T03:27:22;95993.66;;;18.36
32039;BMP280;18549;42.286;22.688;2023-09-30T03:29:49;95985.59;;;18.32
32039;BMP280;18549;42.286;22.688;2023-09-30T03:32:17;95994.03;;;18.41
32039;BMP280;18549;42.286;22.688;2023-09-30T03:34:43;95995.47;;;18.43
32039;BMP280;18549;42.286;22.688;2023-09-30T03:37:12;95994.56;;;18.44
32039;BMP280;18549;42.286;22.688;2023-09-30T03:39:41;96003.00;;;18.52
32039;BMP280;18549;42.286;22.688;2023-09-30T03:42:08;96002.34;;;18.41
32039;BMP280;18549;42.286;22.688;2023-09-30T03:44:37;95998.09;;;18.42
32039;BMP280;18549;42.286;22.688;2023-09-30T03:47:05;95993.78;;;18.34
32039;BMP280;18549;42.286;22.688;2023-09-30T03:49:34;95996.56;;;18.22
32039;BMP280;18549;42.286;22.688;2023-09-30T03:52:04;95994.97;;;18.21
32039;BMP280;18549;42.286;22.688;2023-09-30T03:54:32;95993.66;;;18.26
32039;BMP280;18549;42.286;22.688;2023-09-30T03:57:01;95995.78;;;18.31
32039;BMP280;18549;42.286;22.688;2023-09-30T03:59:28;95995.62;;;18.23
32039;BMP280;18549;42.286;22.688;2023-09-30T04:01:56;96001.97;;;18.17
32039;BMP280;18549;42.286;22.688;2023-09-30T04:04:24;96003.31;;;18.12
32039;BMP280;18549;42.286;22.688;2023-09-30T04:06:51;96008.97;;;18.05
32039;BMP280;18549;42.286;22.688;2023-09-30T04:09:19;96003.94;;;18.05
32039;BMP280;18549;42.286;22.688;2023-09-30T04:11:47;95998.78;;;17.97
32039;BMP280;18549;42.286;22.688;2023-09-30T04:14:16;96003.94;;;17.95
32039;BMP280;18549;42.286;22.688;2023-09-30T04:16:44;96003.00;;;17.96
32039;BMP280;18549;42.286;22.688;2023-09-30T04:19:11;95999.72;;;18.05
32039;BMP280;18549;42.286;22.688;2023-09-30T04:21:39;96006.59;;;18.13
32039;BMP280;18549;42.286;22.688;2023-09-30T04:24:07;96006.87;;;18.19
32039;BMP280;18549;42.286;22.688;2023-09-30T04:26:35;96003.69;;;18.26
32039;BMP280;18549;42.286;22.688;2023-09-30T04:29:02;96007.00;;;18.17
32039;BMP280;18549;42.286;22.688;2023-09-30T04:31:37;96007.00;;;18.17
32039;BMP280;18549;42.286;22.688;2023-09-30T04:34:07;96011.59;;;18.03
32039;BMP280;18549;42.286;22.688;2023-09-30T04:36:34;96010.28;;;17.99
32039;BMP280;18549;42.286;22.688;2023-09-30T04:39:02;96010.53;;;17.96
32039;BMP280;18549;42.286;22.688;2023-09-30T04:41:30;96016.84;;;17.91
32039;BMP280;18549;42.286;22.688;2023-09-30T04:43:58;96015.00;;;17.93
32039;BMP280;18549;42.286;22.688;2023-09-30T04:46:26;96024.63;;;17.79
32039;BMP280;18549;42.286;22.688;2023-09-30T04:48:55;96016.84;;;17.72
32039;BMP280;18549;42.286;22.688;2023-09-30T04:51:22;96026.19;;;17.70
32039;BMP280;18549;42.286;22.688;2023-09-30T04:53:51;96030.53;;;17.68
32039;BMP280;18549;42.286;22.688;2023-09-30T04:56:20;96030.25;;;17.62
32039;BMP280;18549;42.286;22.688;2023-09-30T04:58:48;96033.97;;;17.58
32039;BMP280;18549;42.286;22.688;2023-09-30T05:01:15;96027.12;;;17.60
32039;BMP280;18549;42.286;22.688;2023-09-30T05:03:44;96030.53;;;17.68
32039;BMP280;18549;42.286;22.688;2023-09-30T05:06:16;96016.81;;;17.63
32039;BMP280;18549;42.286;22.688;2023-09-30T05:08:43;96033.69;;;17.61
32039;BMP280;18549;42.286;22.688;2023-09-30T05:11:10;96033.19;;;17.67
32039;BMP280;18549;42.286;22.688;2023-09-30T05:13:38;96033.72;;;17.70
32039;BMP280;18549;42.286;22.688;2023-09-30T05:16:05;96029.87;;;17.66
32039;BMP280;18549;42.286;22.688;2023-09-30T05:18:33;96036.22;;;17.61
32039;BMP280;18549;42.286;22.688;2023-09-30T05:21:00;96028.44;;;17.64
32039;BMP280;18549;42.286;22.688;2023-09-30T05:23:29;96026.59;;;17.66
32039;BMP280;18549;42.286;22.688;2023-09-30T05:25:56;96028.44;;;17.73
32039;BMP280;18549;42.286;22.688;2023-09-30T05:28:23;96036.78;;;17.92
32039;BMP280;18549;42.286;22.688;2023-09-30T05:30:50;96040.63;;;17.96
32039;BMP280;18549;42.286;22.688;2023-09-30T05:33:17;96034.28;;;17.92
32039;BMP280;18549;42.286;22.688;2023-09-30T05:35:45;96030.84;;;17.93
32039;BMP280;18549;42.286;22.688;2023-09-30T05:38:13;96036.69;;;18.03
32039;BMP280;18549;42.286;22.688;2023-09-30T05:40:42;96024.56;;;18.08
32039;BMP280;18549;42.286;22.688;2023-09-30T05:43:10;96041.47;;;18.06
32039;BMP280;18549;42.286;22.688;2023-09-30T05:45:39;96048.47;;;18.12
32039;BMP280;18549;42.286;22.688;2023-09-30T05:48:14;96046.47;;;18.16
32039;BMP280;18549;42.286;22.688;2023-09-30T05:50:41;96050.16;;;18.12
32039;BMP280;18549;42.286;22.688;2023-09-30T05:53:09;96041.47;;;18.16
32039;BMP280;18549;42.286;22.688;2023-09-30T05:55:37;96045.41;;;18.18
32039;BMP280;18549;42.286;22.688;2023-09-30T05:58:09;96057.31;;;18.16
32039;BMP280;18549;42.286;22.688;2023-09-30T06:00:39;96055.19;;;18.21
32039;BMP280;18549;42.286;22.688;2023-09-30T06:03:07;96054.16;;;18.33
32039;BMP280;18549;42.286;22.688;2023-09-30T06:05:39;96059.94;;;18.43
32039;BMP280;18549;42.286;22.688;2023-09-30T06:08:08;96068.41;;;18.51
32039;BMP280;18549;42.286;22.688;2023-09-30T06:10:36;96059.94;;;18.43
32039;BMP280;18549;42.286;22.688;2023-09-30T06:13:10;96062.34;;;18.53
32039;BMP280;18549;42.286;22.688;2023-09-30T06:15:38;96065.75;;;18.62
32039;BMP280;18549;42.286;22.688;2023-09-30T06:18:06;96067.34;;;18.53
32039;BMP280;18549;42.286;22.688;2023-09-30T06:20:33;96052.78;;;18.57
32039;BMP280;18549;42.286;22.688;2023-09-30T06:23:00;96057.03;;;18.66
32039;BMP280;18549;42.286;22.688;2023-09-30T06:25:28;96053.81;;;18.73
32039;BMP280;18549;42.286;22.688;2023-09-30T06:27:56;96060.16;;;18.86
32039;BMP280;18549;42.286;22.688;2023-09-30T06:30:25;96059.06;;;19.08
32039;BMP280;18549;42.286;22.688;2023-09-30T06:32:55;96057.69;;;19.22
32039;BMP280;18549;42.286;22.688;2023-09-30T06:35:23;96055.28;;;19.30
32039;BMP280;18549;42.286;22.688;2023-09-30T06:37:52;96064.38;;;19.41
32039;BMP280;18549;42.286;22.688;2023-09-30T06:40:19;96063.25;;;19.52
32039;BMP280;18549;42.286;22.688;2023-09-30T06:42:46;96065.00;;;19.52
32039;BMP280;18549;42.286;22.688;2023-09-30T06:45:14;96057.03;;;19.56
32039;BMP280;18549;42.286;22.688;2023-09-30T06:47:43;96062.00;;;19.66
32039;BMP280;18549;42.286;22.688;2023-09-30T06:50:12;96059.03;;;19.53
32039;BMP280;18549;42.286;22.688;2023-09-30T06:52:42;96062.09;;;19.47
32039;BMP280;18549;42.286;22.688;2023-09-30T06:55:11;96058.53;;;19.67
32039;BMP280;18549;42.286;22.688;2023-09-30T06:57:42;96055.59;;;19.81
32039;BMP280;18549;42.286;22.688;2023-09-30T07:00:11;96053.81;;;19.64
32039;BMP280;18549;42.286;22.688;2023-09-30T07:02:40;96058.63;;;19.84
32039;BMP280;18549;42.286;22.688;2023-09-30T07:05:09;96055.19;;;20.02
32039;BMP280;18549;42.286;22.688;2023-09-30T07:07:37;96062.25;;;20.16
32039;BMP280;18549;42.286;22.688;2023-09-30T07:10:06;96062.03;;;20.27
32039;BMP280;18549;42.286;22.688;2023-09-30T07:12:34;96065.41;;;20.35
32039;BMP280;18549;42.286;22.688;2023-09-30T07:15:01;96067.84;;;20.45
32039;BMP280;18549;42.286;22.688;2023-09-30T07:17:28;96058.50;;;20.54
32039;BMP280;18549;42.286;22.688;2023-09-30T07:19:56;96050.38;;;20.60
32039;BMP280;18549;42.286;22.688;2023-09-30T07:22:25;96052.37;;;20.74
32039;BMP280;18549;42.286;22.688;2023-09-30T07:24:52;96049.12;;;20.82
32039;BMP280;18549;42.286;22.688;2023-09-30T07:27:20;96047.44;;;20.90
32039;BMP280;18549;42.286;22.688;2023-09-30T07:29:47;96052.56;;;21.06
32039;BMP280;18549;42.286;22.688;2023-09-30T07:32:15;96054.50;;;21.12
32039;BMP280;18549;42.286;22.688;2023-09-30T07:34:42;96053.87;;;21.10
32039;BMP280;18549;42.286;22.688;2023-09-30T07:37:09;96049.19;;;21.22
32039;BMP280;18549;42.286;22.688;2023-09-30T07:39:38;96055.22;;;21.29
32039;BMP280;18549;42.286;22.688;2023-09-30T07:42:08;96054.69;;;21.43
32039;BMP280;18549;42.286;22.688;2023-09-30T07:44:35;96046.56;;;21.57
32039;BMP280;18549;42.286;22.688;2023-09-30T07:47:03;96052.25;;;21.67
32039;BMP280;18549;42.286;22.688;2023-09-30T07:49:31;96059.09;;;21.82
32039;BMP280;18549;42.286;22.688;2023-09-30T07:51:59;96053.59;;;21.86
32039;BMP280;18549;42.286;22.688;2023-09-30T07:54:26;96050.28;;;21.94
32039;BMP280;18549;42.286;22.688;2023-09-30T07:56:55;96062.44;;;21.98
32039;BMP280;18549;42.286;22.688;2023-09-30T07:59:23;96061.88;;;22.12
32039;BMP280;18549;42.286;22.688;2023-09-30T08:01:51;96052.41;;;22.22
32039;BMP280;18549;42.286;22.688;2023-09-30T08:04:19;96058.09;;;22.32
32039;BMP280;18549;42.286;22.688;2023-09-30T08:06:46;96053.53;;;22.43
32039;BMP280;18549;42.286;22.688;2023-09-30T08:09:13;96050.84;;;22.60
32039;BMP280;18549;42.286;22.688;2023-09-30T08:11:41;96048.81;;;22.72
32039;BMP280;18549;42.286;22.688;2023-09-30T08:14:10;96042.31;;;22.77
32039;BMP280;18549;42.286;22.688;2023-09-30T08:16:38;96038.53;;;22.73
32039;BMP280;18549;42.286;22.688;2023-09-30T08:19:06;96041.53;;;22.84
32039;BMP280;18549;42.286;22.688;2023-09-30T08:21:33;96040.41;;;22.95
32039;BMP280;18549;42.286;22.688;2023-09-30T08:24:02;96026.66;;;23.05
32039;BMP280;18549;42.286;22.688;2023-09-30T08:26:29;96033.72;;;23.17
32039;BMP280;18549;42.286;22.688;2023-09-30T08:28:57;96035.91;;;23.28
32039;BMP280;18549;42.286;22.688;2023-09-30T08:31:26;96030.97;;;23.35
32039;BMP280;18549;42.286;22.688;2023-09-30T08:33:53;96025.41;;;23.39
32039;BMP280;18549;42.286;22.688;2023-09-30T08:36:20;96032.34;;;23.53
32039;BMP280;18549;42.286;22.688;2023-09-30T08:38:48;96038.66;;;23.65
32039;BMP280;18549;42.286;22.688;2023-09-30T08:41:24;96032.75;;;23.72
32039;BMP280;18549;42.286;22.688;2023-09-30T08:43:58;96033.53;;;23.73
32039;BMP280;18549;42.286;22.688;2023-09-30T08:46:29;96026.09;;;23.71
32039;BMP280;18549;42.286;22.688;2023-09-30T08:48:58;96031.34;;;23.70
32039;BMP280;18549;42.286;22.688;2023-09-30T08:51:26;96027.81;;;23.79
32039;BMP280;18549;42.286;22.688;2023-09-30T08:53:56;96021.75;;;23.87
32039;BMP280;18549;42.286;22.688;2023-09-30T08:56:26;96025.81;;;23.96
32039;BMP280;18549;42.286;22.688;2023-09-30T08:58:56;96015.63;;;24.04
32039;BMP280;18549;42.286;22.688;2023-09-30T09:01:26;96021.87;;;24.16
32039;BMP280;18549;42.286;22.688;2023-09-30T09:03:56;96005.25;;;24.21
32039;BMP280;18549;42.286;22.688;2023-09-30T09:06:24;96007.47;;;24.17
32039;BMP280;18549;42.286;22.688;2023-09-30T09:08:52;96017.59;;;24.24
32039;BMP280;18549;42.286;22.688;2023-09-30T09:11:19;95993.31;;;24.30
32039;BMP280;18549;42.286;22.688;2023-09-30T09:13:48;96002.66;;;24.29
32039;BMP280;18549;42.286;22.688;2023-09-30T09:16:19;96008.50;;;24.30
32039;BMP280;18549;42.286;22.688;2023-09-30T09:18:46;95996.56;;;24.38
32039;BMP280;18549;42.286;22.688;2023-09-30T09:21:19;96003.16;;;24.47
32039;BMP280;18549;42.286;22.688;2023-09-30T09:23:51;96000.91;;;24.52
32039;BMP280;18549;42.286;22.688;2023-09-30T09:26:25;95992.25;;;24.61
32039;BMP280;18549;42.286;22.688;2023-09-30T09:28:57;95994.19;;;24.73
32039;BMP280;18549;42.286;22.688;2023-09-30T09:31:27;95993.78;;;24.84
32039;BMP280;18549;42.286;22.688;2023-09-30T09:33:55;95988.03;;;24.90
32039;BMP280;18549;42.286;22.688;2023-09-30T09:36:40;95980.88;;;24.93
32039;BMP280;18549;42.286;22.688;2023-09-30T09:39:08;95986.47;;;25.03
32039;BMP280;18549;42.286;22.688;2023-09-30T09:41:49;95980.19;;;25.14
32039;BMP280;18549;42.286;22.688;2023-09-30T09:44:19;95982.00;;;25.19
32039;BMP280;18549;42.286;22.688;2023-09-30T09:46:47;95986.38;;;25.25
32039;BMP280;18549;42.286;22.688;2023-09-30T09:49:21;95967.09;;;25.31
32039;BMP280;18549;42.286;22.688;2023-09-30T09:51:52;95972.28;;;25.37
32039;BMP280;18549;42.286;22.688;2023-09-30T09:54:21;95974.03;;;25.37
32039;BMP280;18549;42.286;22.688;2023-09-30T09:56:49;95975.13;;;25.49
32039;BMP280;18549;42.286;22.688;2023-09-30T09:59:20;95970.16;;;25.55
32039;BMP280;18549;42.286;22.688;2023-09-30T10:01:49;95981.81;;;25.64
32039;BMP280;18549;42.286;22.688;2023-09-30T10:04:17;95972.88;;;25.68
32039;BMP280;18549;42.286;22.688;2023-09-30T10:06:46;95962.59;;;25.76
32039;BMP280;18549;42.286;22.688;2023-09-30T10:09:20;95962.06;;;25.80
32039;BMP280;18549;42.286;22.688;2023-09-30T10:11:48;95959.03;;;25.70
32039;BMP280;18549;42.286;22.688;2023-09-30T10:14:30;95951.28;;;25.78
32039;BMP280;18549;42.286;22.688;2023-09-30T10:16:58;95952.56;;;25.88
32039;BMP280;18549;42.286;22.688;2023-09-30T10:19:29;95944.66;;;25.98
32039;BMP280;18549;42.286;22.688;2023-09-30T10:22:20;95939.66;;;26.11
32039;BMP280;18549;42.286;22.688;2023-09-30T10:24:49;95940.09;;;26.14
32039;BMP280;18549;42.286;22.688;2023-09-30T10:27:35;95932.84;;;26.32
32039;BMP280;18549;42.286;22.688;2023-09-30T10:30:07;95935.69;;;26.50
32039;BMP280;18549;42.286;22.688;2023-09-30T10:33:09;95935.06;;;26.68
32039;BMP280;18549;42.286;22.688;2023-09-30T10:35:47;95928.16;;;26.62
32039;BMP280;18549;42.286;22.688;2023-09-30T10:38:37;95924.41;;;26.25
32039;BMP280;18549;42.286;22.688;2023-09-30T10:41:08;95928.16;;;26.15
32039;BMP280;18549;42.286;22.688;2023-09-30T10:43:39;95921.03;;;26.24
32039;BMP280;18549;42.286;22.688;2023-09-30T10:46:31;95917.44;;;26.40
32039;BMP280;18549;42.286;22.688;2023-09-30T10:49:17;95904.06;;;26.58
32039;BMP280;18549;42.286;22.688;2023-09-30T10:51:45;95907.78;;;26.83
32039;BMP280;18549;42.286;22.688;2023-09-30T10:54:13;95912.56;;;26.99
32039;BMP280;18549;42.286;22.688;2023-09-30T10:56:42;95910.53;;;26.88
32039;BMP280;18549;42.286;22.688;2023-09-30T10:59:10;95902.91;;;26.88
32039;BMP280;18549;42.286;22.688;2023-09-30T11:01:37;95897.81;;;26.88
32039;BMP280;18549;42.286;22.688;2023-09-30T11:04:06;95893.22;;;27.11
32039;BMP280;18549;42.286;22.688;2023-09-30T11:06:34;95896.66;;;26.84
32039;BMP280;18549;42.286;22.688;2023-09-30T11:09:02;95896.22;;;26.53
32039;BMP280;18549;42.286;22.688;2023-09-30T11:11:36;95901.75;;;26.84
32039;BMP280;18549;42.286;22.688;2023-09-30T11:14:16;95890.88;;;27.03
32039;BMP280;18549;42.286;22.688;2023-09-30T11:16:44;95892.50;;;27.29
32039;BMP280;18549;42.286;22.688;2023-09-30T11:19:12;95895.38;;;27.53
32039;BMP280;18549;42.286;22.688;2023-09-30T11:21:41;95883.66;;;27.72
32039;BMP280;18549;42.286;22.688;2023-09-30T11:24:10;95890.44;;;27.52
32039;BMP280;18549;42.286;22.688;2023-09-30T11:26:38;95881.16;;;27.32
32039;BMP280;18549;42.286;22.688;2023-09-30T11:29:09;95886.31;;;27.45
32039;BMP280;18549;42.286;22.688;2023-09-30T11:31:38;95880.38;;;27.31
32039;BMP280;18549;42.286;22.688;2023-09-30T11:34:06;95888.66;;;27.40
32039;BMP280;18549;42.286;22.688;2023-09-30T11:36:35;95881.41;;;27.37
32039;BMP280;18549;42.286;22.688;2023-09-30T11:39:03;95882.41;;;27.42
32039;BMP280;18549;42.286;22.688;2023-09-30T11:41:34;95871.09;;;27.70
32039;BMP280;18549;42.286;22.688;2023-09-30T11:44:05;95869.41;;;27.96
32039;BMP280;18549;42.286;22.688;2023-09-30T11:46:49;95860.94;;;27.89
32039;BMP280;18549;42.286;22.688;2023-09-30T11:49:28;95850.75;;;28.15
32039;BMP280;18549;42.286;22.688;2023-09-30T11:52:07;95848.00;;;28.36
32039;BMP280;18549;42.286;22.688;2023-09-30T11:54:36;95857.00;;;28.45
32039;BMP280;18549;42.286;22.688;2023-09-30T11:57:07;95845.66;;;28.28
32039;BMP280;18549;42.286;22.688;2023-09-30T11:59:36;95842.94;;;28.10
32039;BMP280;18549;42.286;22.688;2023-09-30T12:02:05;95843.28;;;27.88
32039;BMP280;18549;42.286;22.688;2023-09-30T12:04:32;95833.31;;;27.99
32039;BMP280;18549;42.286;22.688;2023-09-30T12:07:00;95834.09;;;28.06
32039;BMP280;18549;42.286;22.688;2023-09-30T12:09:27;95838.63;;;28.23
32039;BMP280;18549;42.286;22.688;2023-09-30T12:11:56;95828.78;;;28.33
32039;BMP280;18549;42.286;22.688;2023-09-30T12:14:24;95831.50;;;28.38
32039;BMP280;18549;42.286;22.688;2023-09-30T12:16:51;95827.00;;;28.47
32039;BMP280;18549;42.286;22.688;2023-09-30T12:19:20;95833.81;;;28.52
32039;BMP280;18549;42.286;22.688;2023-09-30T12:21:48;95828.59;;;28.35
32039;BMP280;18549;42.286;22.688;2023-09-30T12:24:16;95827.81;;;28.28
32039;BMP280;18549;42.286;22.688;2023-09-30T12:26:49;95829.19;;;28.11
32039;BMP280;18549;42.286;22.688;2023-09-30T12:29:19;95813.53;;;28.01
32039;BMP280;18549;42.286;22.688;2023-09-30T12:31:48;95821.94;;;28.08
32039;BMP280;18549;42.286;22.688;2023-09-30T12:34:16;95810.78;;;28.03
32039;BMP280;18549;42.286;22.688;2023-09-30T12:36:45;95812.75;;;28.01
32039;BMP280;18549;42.286;22.688;2023-09-30T12:39:13;95797.25;;;27.96
32039;BMP280;18549;42.286;22.688;2023-09-30T12:41:43;95798.84;;;28.03
32039;BMP280;18549;42.286;22.688;2023-09-30T12:44:11;95799.97;;;27.94
32039;BMP280;18549;42.286;22.688;2023-09-30T12:46:38;95801.37;;;27.78
32039;BMP280;18549;42.286;22.688;2023-09-30T12:49:06;95804.50;;;27.60
32039;BMP280;18549;42.286;22.688;2023-09-30T12:51:34;95797.44;;;27.50
32039;BMP280;18549;42.286;22.688;2023-09-30T12:54:03;95799.75;;;27.38
32039;BMP280;18549;42.286;22.688;2023-09-30T12:56:31;95795.59;;;27.24
32039;BMP280;18549;42.286;22.688;2023-09-30T12:58:59;95788.13;;;27.10
32039;BMP280;18549;42.286;22.688;2023-09-30T13:01:26;95789.47;;;26.93
32039;BMP280;18549;42.286;22.688;2023-09-30T13:03:54;95793.13;;;26.78
32039;BMP280;18549;42.286;22.688;2023-09-30T13:06:21;95782.78;;;26.80
32039;BMP280;18549;42.286;22.688;2023-09-30T13:08:49;95783.06;;;26.70
32039;BMP280;18549;42.286;22.688;2023-09-30T13:11:19;95783.66;;;26.66
32039;BMP280;18549;42.286;22.688;2023-09-30T13:13:46;95782.28;;;26.70
32039;BMP280;18549;42.286;22.688;2023-09-30T13:16:14;95779.34;;;26.66
32039;BMP280;18549;42.286;22.688;2023-09-30T13:18:42;95774.41;;;26.58
32039;BMP280;18549;42.286;22.688;2023-09-30T13:21:09;95775.62;;;26.62
32039;BMP280;18549;42.286;22.688;2023-09-30T13:23:37;95770.34;;;26.70
32039;BMP280;18549;42.286;22.688;2023-09-30T13:26:05;95774.06;;;26.61
32039;BMP280;18549;42.286;22.688;2023-09-30T13:28:34;95770.94;;;26.66
32039;BMP280;18549;42.286;22.688;2023-09-30T13:31:01;95766.03;;;26.64
32039;BMP280;18549;42.286;22.688;2023-09-30T13:33:28;95767.72;;;26.45
32039;BMP280;18549;42.286;22.688;2023-09-30T13:35:56;95765.25;;;26.57
32039;BMP280;18549;42.286;22.688;2023-09-30T13:40:50;95766.81;;;26.65
32039;BMP280;18549;42.286;22.688;2023-09-30T13:43:18;95758.44;;;26.71
32039;BMP280;18549;42.286;22.688;2023-09-30T13:45:47;95756.13;;;26.76
32039;BMP280;18549;42.286;22.688;2023-09-30T13:48:16;95759.06;;;26.79
32039;BMP280;18549;42.286;22.688;2023-09-30T13:50:43;95759.59;;;26.62
32039;BMP280;18549;42.286;22.688;2023-09-30T13:53:11;95759.94;;;26.59
32039;BMP280;18549;42.286;22.688;2023-09-30T13:55:39;95759.34;;;26.51
32039;BMP280;18549;42.286;22.688;2023-09-30T13:58:06;95749.25;;;26.23
32039;BMP280;18549;42.286;22.688;2023-09-30T14:00:33;95756.19;;;26.15
32039;BMP280;18549;42.286;22.688;2023-09-30T14:03:02;95752.66;;;26.10
32039;BMP280;18549;42.286;22.688;2023-09-30T14:05:30;95755.28;;;26.16
32039;BMP280;18549;42.286;22.688;2023-09-30T14:07:58;95756.56;;;26.12
32039;BMP280;18549;42.286;22.688;2023-09-30T14:10:25;95765.91;;;26.05